createdAt,value
2017-10-27T00:01:25.549Z,15.30
2017-10-27T00:03:51.917Z,15.50
2017-10-27T00:06:18.419Z,16.27
2017-10-27T00:08:44.845Z,15.40
2017-10-27T00:11:12.035Z,14.67
2017-10-27T00:13:38.431Z,14.13
2017-10-27T00:16:04.865Z,14.47
2017-10-27T00:18:31.301Z,13.40
2017-10-27T00:20:57.746Z,14.93
2017-10-27T00:23:24.171Z,15.07
2017-10-27T00:25:50.605Z,15.90
2017-10-27T00:28:17.756Z,18.80
2017-10-27T00:30:44.200Z,22.60
2017-10-27T00:33:10.626Z,21.40
2017-10-27T00:35:37.172Z,23.93
2017-10-27T00:38:03.572Z,23.67
2017-10-27T00:40:29.967Z,21.23
2017-10-27T00:42:56.365Z,21.37
2017-10-27T00:45:23.626Z,19.57
2017-10-27T00:47:50.024Z,19.70
2017-10-27T00:50:16.491Z,20.77
2017-10-27T00:52:42.832Z,20.30
2017-10-27T00:55:09.256Z,21.47
2017-10-27T00:57:35.690Z,19.87
2017-10-27T01:00:02.133Z,19.07
2017-10-27T01:02:29.390Z,20.87
2017-10-27T01:04:56.020Z,20.20
2017-10-27T01:07:22.944Z,21.13
2017-10-27T01:09:49.411Z,19.50
2017-10-27T01:12:15.837Z,18.40
2017-10-27T01:14:42.278Z,18.17
2017-10-27T01:17:08.712Z,18.37
2017-10-27T01:19:35.957Z,18.43
2017-10-27T01:22:02.278Z,15.47
2017-10-27T01:24:28.724Z,17.07
2017-10-27T01:26:55.168Z,17.40
2017-10-27T01:29:21.531Z,16.00
2017-10-27T01:31:48.038Z,15.43
2017-10-27T01:34:14.432Z,15.70
2017-10-27T01:36:41.726Z,15.33
2017-10-27T01:39:08.153Z,14.47
2017-10-27T01:41:34.587Z,15.23
2017-10-27T01:44:00.920Z,15.77
2017-10-27T01:46:27.354Z,14.87
2017-10-27T01:48:53.797Z,14.67
2017-10-27T01:51:20.224Z,15.03
2017-10-27T01:53:47.453Z,14.33
2017-10-27T01:56:13.920Z,15.30
2017-10-27T01:58:40.459Z,14.60
2017-10-27T02:01:06.891Z,16.20
2017-10-27T02:03:33.255Z,16.47
2017-10-27T02:05:59.762Z,16.07
2017-10-27T02:08:26.121Z,14.30
2017-10-27T02:10:53.343Z,14.90
2017-10-27T02:13:19.776Z,15.63
2017-10-27T02:15:46.208Z,14.73
2017-10-27T02:18:12.643Z,14.03
2017-10-27T02:20:38.976Z,15.27
2017-10-27T02:23:05.348Z,15.50
2017-10-27T02:25:31.752Z,14.70
2017-10-27T02:27:59.006Z,14.73
2017-10-27T02:30:25.441Z,14.87
2017-10-27T02:32:51.867Z,14.60
2017-10-27T02:35:18.199Z,13.30
2017-10-27T02:37:44.633Z,13.80
2017-10-27T02:40:11.003Z,13.93
2017-10-27T02:42:37.511Z,13.20
2017-10-27T02:45:04.622Z,13.53
2017-10-27T02:47:31.027Z,15.30
2017-10-27T02:49:57.420Z,14.00
2017-10-27T02:52:23.856Z,12.27
2017-10-27T02:54:50.393Z,13.40
2017-10-27T02:57:16.836Z,13.53
2017-10-27T02:59:43.267Z,12.63
2017-10-27T03:02:10.455Z,12.43
2017-10-27T03:04:36.848Z,13.60
2017-10-27T03:07:03.291Z,13.30
2017-10-27T03:09:29.694Z,14.07
2017-10-27T03:11:56.161Z,14.00
2017-10-27T03:14:22.588Z,14.43
2017-10-27T03:16:49.025Z,14.67
2017-10-27T03:19:16.285Z,13.63
2017-10-27T03:21:42.648Z,14.67
2017-10-27T03:24:09.158Z,14.13
2017-10-27T03:26:35.580Z,15.40
2017-10-27T03:29:02.022Z,13.80
2017-10-27T03:31:28.419Z,15.07
2017-10-27T03:33:54.884Z,14.97
2017-10-27T03:36:22.036Z,14.30
2017-10-27T03:38:48.633Z,14.63
2017-10-27T03:41:15.048Z,13.93
2017-10-27T03:43:41.441Z,15.40
2017-10-27T03:46:07.877Z,27.70
2017-10-27T03:48:34.391Z,15.50
2017-10-27T03:51:00.868Z,14.53
2017-10-27T03:53:28.009Z,14.00
2017-10-27T03:55:54.435Z,13.30
2017-10-27T03:58:20.879Z,13.90
2017-10-27T04:00:47.201Z,13.93
2017-10-27T04:03:13.535Z,13.73
2017-10-27T04:05:39.979Z,12.60
2017-10-27T04:08:06.414Z,13.73
2017-10-27T04:10:33.556Z,13.83
2017-10-27T04:12:59.927Z,14.50
2017-10-27T04:15:26.535Z,13.97
2017-10-27T04:17:52.956Z,13.70
2017-10-27T04:20:19.396Z,13.90
2017-10-27T04:22:45.808Z,15.53
2017-10-27T04:25:12.266Z,16.40
2017-10-27T04:27:39.521Z,16.77
2017-10-27T04:30:05.955Z,18.53
2017-10-27T04:32:32.398Z,18.93
2017-10-27T04:34:58.818Z,17.20
2017-10-27T04:37:25.260Z,16.10
2017-10-27T04:39:51.696Z,15.53
2017-10-27T04:42:18.098Z,16.10
2017-10-27T04:44:45.328Z,16.10
2017-10-27T04:47:12.432Z,15.70
2017-10-27T04:49:38.875Z,15.53
2017-10-27T04:52:05.804Z,15.40
2017-10-27T04:54:32.280Z,17.30
2017-10-27T04:56:58.683Z,18.10
2017-10-27T04:59:25.073Z,17.30
2017-10-27T05:01:52.277Z,16.50
2017-10-27T05:04:19.737Z,13.67
2017-10-27T05:06:46.610Z,15.30
2017-10-27T05:09:13.323Z,13.97
2017-10-27T05:11:39.709Z,19.37
2017-10-27T05:14:06.127Z,18.90
2017-10-27T05:16:32.893Z,16.17
2017-10-27T05:18:59.363Z,16.20
2017-10-27T05:21:25.805Z,20.83
2017-10-27T05:23:52.257Z,23.03
2017-10-27T05:26:18.664Z,21.60
2017-10-27T05:28:45.036Z,17.90
2017-10-27T05:31:11.547Z,21.17
2017-10-27T05:33:38.082Z,20.80
2017-10-27T05:36:04.516Z,24.00
2017-10-27T05:38:31.250Z,21.97
2017-10-27T05:40:57.619Z,25.70
2017-10-27T05:43:24.125Z,24.13
2017-10-27T05:45:50.554Z,20.97
2017-10-27T05:48:16.995Z,20.70
2017-10-27T05:50:43.523Z,19.97
2017-10-27T05:53:09.965Z,22.40
2017-10-27T05:55:36.495Z,26.00
2017-10-27T05:58:03.039Z,24.53
2017-10-27T06:00:30.408Z,25.90
2017-10-27T06:02:56.825Z,24.63
2017-10-27T06:05:23.465Z,24.70
2017-10-27T06:07:49.898Z,25.23
2017-10-27T06:10:16.283Z,29.03
2017-10-27T06:12:42.807Z,21.03
2017-10-27T06:15:09.296Z,21.03
2017-10-27T06:17:35.983Z,22.00
2017-10-27T06:20:02.453Z,23.77
2017-10-27T06:22:28.944Z,22.20
2017-10-27T06:24:55.541Z,22.07
2017-10-27T06:27:21.957Z,25.27
2017-10-27T06:29:48.433Z,29.27
2017-10-27T06:32:15.042Z,30.73
2017-10-27T06:34:41.704Z,25.87
2017-10-27T06:37:08.140Z,24.87
2017-10-27T06:39:35.321Z,24.00
2017-10-27T06:42:02.035Z,23.27
2017-10-27T06:44:28.445Z,22.93
2017-10-27T06:46:55.252Z,23.80
2017-10-27T06:49:21.614Z,22.50
2017-10-27T06:51:48.087Z,22.83
2017-10-27T06:54:14.506Z,23.80
2017-10-27T06:56:41.458Z,22.57
2017-10-27T06:59:07.808Z,20.50
2017-10-27T07:01:34.378Z,20.73
2017-10-27T07:04:01.083Z,20.40
2017-10-27T07:06:27.916Z,19.47
2017-10-27T07:08:54.352Z,20.83
2017-10-27T07:11:20.998Z,18.90
2017-10-27T07:13:47.424Z,19.80
2017-10-27T07:16:13.961Z,16.00
2017-10-27T07:18:40.425Z,15.73
2017-10-27T07:21:07.012Z,15.50
2017-10-27T07:23:33.479Z,15.97
2017-10-27T07:26:00.007Z,17.80
2017-10-27T07:28:26.451Z,17.77
2017-10-27T07:30:52.991Z,21.83
2017-10-27T07:33:19.696Z,24.70
2017-10-27T07:35:46.267Z,25.70
2017-10-27T07:38:12.702Z,24.67
2017-10-27T07:40:39.683Z,24.10
2017-10-27T07:43:06.185Z,22.30
2017-10-27T07:45:32.898Z,25.10
2017-10-27T07:47:59.354Z,20.40
2017-10-27T07:50:26.208Z,18.40
2017-10-27T07:52:53.042Z,16.50
2017-10-27T07:55:19.515Z,16.90
2017-10-27T07:57:46.325Z,15.20
2017-10-27T08:00:13.301Z,16.60
2017-10-27T08:02:40.520Z,17.47
2017-10-27T08:05:07.118Z,18.80
2017-10-27T08:07:34.347Z,16.93
2017-10-27T08:10:00.747Z,18.30
2017-10-27T08:12:27.600Z,17.20
2017-10-27T08:14:54.099Z,16.70
2017-10-27T08:17:20.871Z,16.17
2017-10-27T08:19:47.922Z,21.17
2017-10-27T08:22:14.457Z,19.33
2017-10-27T08:24:40.892Z,21.43
2017-10-27T08:27:07.257Z,20.70
2017-10-27T08:29:33.770Z,22.70
2017-10-27T08:32:00.272Z,20.23
2017-10-27T08:34:27.145Z,20.37
2017-10-27T08:36:53.582Z,19.67
2017-10-27T08:39:20.206Z,19.50
2017-10-27T08:41:47.746Z,18.80
2017-10-27T08:44:14.314Z,22.40
2017-10-27T08:46:40.749Z,22.73
2017-10-27T08:49:07.744Z,22.07
2017-10-27T08:51:34.139Z,23.43
2017-10-27T08:54:00.566Z,14.47
2017-10-27T08:56:27.993Z,18.10
2017-10-27T08:58:54.467Z,18.20
2017-10-27T09:01:20.979Z,15.23
2017-10-27T09:03:47.412Z,12.90
2017-10-27T09:06:14.173Z,13.97
2017-10-27T09:08:40.607Z,11.63
2017-10-27T09:11:07.114Z,8.80
2017-10-27T09:13:34.296Z,10.70
2017-10-27T09:16:00.743Z,11.70
2017-10-27T09:18:27.098Z,8.87
2017-10-27T09:20:53.535Z,8.53
2017-10-27T09:23:20.237Z,9.13
2017-10-27T09:25:46.675Z,8.03
2017-10-27T09:28:13.151Z,7.87
2017-10-27T09:30:39.964Z,8.80
2017-10-27T09:33:07.421Z,7.90
2017-10-27T09:35:33.953Z,7.43
2017-10-27T09:38:00.794Z,7.57
2017-10-27T09:40:27.340Z,6.70
2017-10-27T09:42:53.739Z,6.90
2017-10-27T09:45:20.918Z,8.00
2017-10-27T09:47:47.712Z,7.50
2017-10-27T09:50:14.180Z,7.60
2017-10-27T09:52:41.222Z,7.70
2017-10-27T09:55:07.665Z,6.50
2017-10-27T09:57:34.133Z,6.97
2017-10-27T10:00:00.550Z,6.60
2017-10-27T10:02:26.984Z,6.40
2017-10-27T10:04:54.021Z,5.10
2017-10-27T10:07:22.241Z,4.67
2017-10-27T10:09:48.754Z,4.47
2017-10-27T10:12:15.865Z,5.83
2017-10-27T10:14:42.268Z,26.50
2017-10-27T10:17:08.776Z,5.53
2017-10-27T10:19:35.611Z,5.10
2017-10-27T10:22:02.171Z,5.47
2017-10-27T10:24:28.788Z,4.60
2017-10-27T10:26:55.538Z,4.53
2017-10-27T10:29:22.070Z,5.10
2017-10-27T10:31:48.503Z,4.20
2017-10-27T10:34:15.039Z,4.60
2017-10-27T10:36:41.781Z,4.43
2017-10-27T10:39:08.151Z,4.60
2017-10-27T10:41:34.860Z,5.00
2017-10-27T10:44:01.422Z,4.83
2017-10-27T10:46:27.828Z,5.10
2017-10-27T10:48:54.786Z,4.90
2017-10-27T10:51:21.305Z,8.50
2017-10-27T10:53:47.769Z,6.07
2017-10-27T10:56:14.702Z,5.30
2017-10-27T10:58:41.238Z,8.90
2017-10-27T11:01:07.777Z,5.33
2017-10-27T11:03:34.611Z,5.50
2017-10-27T11:06:00.984Z,5.30
2017-10-27T11:08:27.472Z,4.83
2017-10-27T11:10:55.352Z,4.87
2017-10-27T11:13:21.718Z,4.53
2017-10-27T11:15:48.199Z,4.70
2017-10-27T11:18:14.629Z,4.70
2017-10-27T11:20:41.612Z,5.10
2017-10-27T11:23:08.222Z,4.70
2017-10-27T11:25:34.674Z,3.97
2017-10-27T11:28:01.763Z,3.90
2017-10-27T11:30:28.198Z,3.80
2017-10-27T11:32:54.602Z,4.17
2017-10-27T11:35:21.223Z,3.50
2017-10-27T11:37:47.667Z,4.07
2017-10-27T11:40:14.154Z,3.53
2017-10-27T11:42:40.947Z,3.80
2017-10-27T11:45:07.381Z,4.17
2017-10-27T11:47:33.730Z,3.77
2017-10-27T11:50:00.455Z,3.97
2017-10-27T11:52:26.898Z,4.00
2017-10-27T11:54:53.324Z,3.70
2017-10-27T11:57:20.067Z,3.97
2017-10-27T11:59:46.521Z,4.37
2017-10-27T12:02:12.990Z,3.70
2017-10-27T12:04:39.372Z,3.53
2017-10-27T12:07:05.805Z,3.53
2017-10-27T12:09:32.371Z,3.70
2017-10-27T12:11:59.115Z,3.60
2017-10-27T12:14:25.621Z,3.33
2017-10-27T12:16:52.251Z,3.40
2017-10-27T12:19:18.663Z,3.30
2017-10-27T12:21:45.086Z,3.40
2017-10-27T12:24:12.331Z,3.40
2017-10-27T12:26:38.831Z,3.30
2017-10-27T12:29:05.254Z,3.30
2017-10-27T12:31:31.731Z,3.30
2017-10-27T12:33:58.227Z,3.30
2017-10-27T12:36:24.698Z,3.20
2017-10-27T12:38:51.329Z,3.00
2017-10-27T12:41:17.756Z,3.87
2017-10-27T12:43:44.280Z,3.73
2017-10-27T12:46:11.229Z,3.50
2017-10-27T12:48:37.663Z,3.43
2017-10-27T12:51:04.200Z,3.60
2017-10-27T12:53:30.562Z,3.27
2017-10-27T12:55:57.051Z,3.80
2017-10-27T12:58:23.494Z,3.07
2017-10-27T13:00:50.052Z,3.23
2017-10-27T13:03:16.775Z,3.43
2017-10-27T13:05:43.175Z,3.47
2017-10-27T13:08:09.653Z,3.20
2017-10-27T13:10:36.190Z,7.73
2017-10-27T13:13:02.681Z,3.27
2017-10-27T13:15:29.256Z,4.63
2017-10-27T13:17:56.101Z,3.30
2017-10-27T13:20:22.537Z,3.77
2017-10-27T13:22:48.870Z,3.93
2017-10-27T13:25:15.310Z,3.50
2017-10-27T13:27:41.707Z,3.67
2017-10-27T13:30:08.581Z,4.70
2017-10-27T13:32:35.560Z,4.40
2017-10-27T13:35:02.165Z,3.10
2017-10-27T13:37:28.607Z,3.90
2017-10-27T13:39:55.059Z,4.00
2017-10-27T13:42:21.875Z,4.10
2017-10-27T13:44:48.323Z,3.90
2017-10-27T13:47:14.758Z,5.00
2017-10-27T13:49:41.602Z,3.50
2017-10-27T13:52:08.206Z,4.60
2017-10-27T13:54:34.676Z,4.80
2017-10-27T13:57:01.039Z,5.13
2017-10-27T13:59:27.512Z,5.17
2017-10-27T14:01:54.494Z,5.20
2017-10-27T14:04:20.928Z,5.20
2017-10-27T14:06:47.561Z,4.67
2017-10-27T14:09:13.994Z,7.33
2017-10-27T14:11:40.536Z,5.00
2017-10-27T14:14:07.685Z,5.63
2017-10-27T14:16:34.629Z,6.00
2017-10-27T14:19:01.652Z,4.80
2017-10-27T14:21:28.567Z,5.63
2017-10-27T14:23:55.134Z,4.40
2017-10-27T14:26:21.598Z,5.00
2017-10-27T14:28:48.041Z,5.30
2017-10-27T14:31:15.072Z,5.30
2017-10-27T14:33:41.626Z,6.73
2017-10-27T14:36:08.064Z,7.77
2017-10-27T14:38:34.700Z,7.80
2017-10-27T14:41:01.167Z,11.33
2017-10-27T14:43:28.124Z,10.00
2017-10-27T14:45:55.076Z,9.70
2017-10-27T14:48:21.563Z,13.27
2017-10-27T14:50:47.988Z,10.40
2017-10-27T14:53:14.536Z,10.27
2017-10-27T14:55:40.961Z,11.30
2017-10-27T14:58:07.395Z,15.40
2017-10-27T15:00:34.011Z,12.43
2017-10-27T15:03:00.572Z,12.23
2017-10-27T15:05:27.011Z,14.10
2017-10-27T15:07:53.749Z,14.20
2017-10-27T15:10:20.222Z,15.90
2017-10-27T15:12:46.729Z,15.83
2017-10-27T15:15:13.361Z,15.17
2017-10-27T15:17:39.804Z,14.87
2017-10-27T15:20:06.167Z,14.90
2017-10-27T15:22:32.561Z,15.23
2017-10-27T15:24:58.997Z,17.50
2017-10-27T15:27:25.431Z,14.23
2017-10-27T15:29:52.072Z,17.10
2017-10-27T15:32:18.505Z,17.10
2017-10-27T15:34:44.939Z,19.40
2017-10-27T15:37:11.377Z,18.90
2017-10-27T15:39:37.742Z,18.17
2017-10-27T15:42:04.253Z,18.87
2017-10-27T15:44:31.282Z,18.30
2017-10-27T15:46:57.699Z,19.37
2017-10-27T15:49:24.172Z,18.83
2017-10-27T15:51:50.537Z,20.70
2017-10-27T15:54:16.934Z,18.53
2017-10-27T15:56:43.344Z,19.93
2017-10-27T15:59:09.800Z,17.73
2017-10-27T16:01:37.055Z,20.77
2017-10-27T16:04:03.488Z,20.43
2017-10-27T16:06:29.860Z,25.17
2017-10-27T16:08:56.446Z,21.90
2017-10-27T16:11:23.414Z,24.20
2017-10-27T16:13:49.741Z,23.80
2017-10-27T16:16:16.224Z,24.30
2017-10-27T16:18:43.348Z,24.83
2017-10-27T16:21:09.847Z,24.87
2017-10-27T16:23:36.502Z,22.90
2017-10-27T16:26:07.630Z,22.70
2017-10-27T16:28:35.735Z,23.13
2017-10-27T16:31:03.115Z,25.33
2017-10-27T16:33:30.869Z,24.87
2017-10-27T16:36:06.715Z,23.77
2017-10-27T16:38:34.742Z,24.37
2017-10-27T16:41:05.309Z,22.00
2017-10-27T17:02:33.456Z,24.43
2017-10-27T18:15:30.893Z,15.43
2017-10-27T18:23:21.564Z,14.70
2017-10-27T18:28:57.530Z,16.57
2017-10-27T18:34:02.526Z,14.40
2017-10-27T18:41:46.114Z,19.80
2017-10-27T18:44:18.953Z,16.63
2017-10-27T18:46:54.145Z,16.60
2017-10-27T18:52:07.608Z,17.90
2017-10-27T18:57:19.649Z,16.80
2017-10-27T18:59:52.059Z,16.73
2017-10-27T19:04:54.124Z,17.03
2017-10-27T19:07:26.134Z,19.50
2017-10-27T19:12:35.426Z,24.37
2017-10-27T19:17:40.859Z,22.60
2017-10-27T19:20:13.703Z,20.03
2017-10-27T19:25:22.330Z,20.40
2017-10-27T19:27:48.819Z,19.50
2017-10-27T19:30:15.287Z,20.30
2017-10-27T19:32:41.731Z,21.73
2017-10-27T19:35:08.148Z,22.73
2017-10-27T19:37:34.582Z,22.07
2017-10-27T19:40:01.017Z,19.60
2017-10-27T19:42:27.563Z,24.90
2017-10-27T19:44:54.612Z,21.47
2017-10-27T19:47:21.058Z,23.17
2017-10-27T19:49:47.473Z,21.97
2017-10-27T19:52:13.907Z,21.17
2017-10-27T19:54:40.351Z,20.07
2017-10-27T19:57:06.777Z,14.10
2017-10-27T19:59:33.221Z,14.50
2017-10-27T20:02:00.445Z,14.00
2017-10-27T20:04:26.904Z,13.90
2017-10-27T20:06:53.338Z,14.33
2017-10-27T20:09:19.769Z,13.33
2017-10-27T20:11:46.205Z,13.37
2017-10-27T20:14:12.652Z,14.27
2017-10-27T20:16:39.019Z,14.20
2017-10-27T20:19:06.292Z,13.20
2017-10-27T20:21:32.776Z,11.83
2017-10-27T20:23:59.198Z,13.03
2017-10-27T20:26:25.632Z,13.87
2017-10-27T20:28:52.006Z,14.20
2017-10-27T20:31:18.539Z,13.03
2017-10-27T20:33:44.937Z,13.67
2017-10-27T20:36:12.198Z,14.77
2017-10-27T20:38:38.623Z,18.93
2017-10-27T20:41:05.062Z,19.73
2017-10-27T20:43:31.494Z,19.17
2017-10-27T20:45:57.910Z,19.67
2017-10-27T20:48:24.365Z,18.60
2017-10-27T20:50:50.806Z,19.73
2017-10-27T20:53:17.950Z,20.90
2017-10-27T20:55:44.394Z,22.50
2017-10-27T20:58:10.827Z,21.70
2017-10-27T21:00:37.254Z,22.67
2017-10-27T21:03:03.698Z,26.60
2017-10-27T21:05:30.172Z,26.33
2017-10-27T21:07:56.564Z,23.33
2017-10-27T21:10:23.812Z,25.93
2017-10-27T21:12:50.256Z,26.43
2017-10-27T21:15:16.708Z,25.67
2017-10-27T21:17:43.228Z,25.20
2017-10-27T21:20:09.591Z,26.40
2017-10-27T21:22:35.947Z,27.70
2017-10-27T21:25:02.443Z,25.17
2017-10-27T21:27:29.575Z,25.47
2017-10-27T21:29:56.032Z,25.27
2017-10-27T21:32:22.446Z,27.30
2017-10-27T21:34:48.772Z,27.10
2017-10-27T21:37:15.210Z,25.10
2017-10-27T21:39:41.645Z,24.23
2017-10-27T21:42:08.081Z,26.63
2017-10-27T21:44:35.332Z,26.40
2017-10-27T21:47:01.712Z,25.90
2017-10-27T21:49:28.099Z,25.90
2017-10-27T21:51:54.545Z,24.60
2017-10-27T21:54:20.969Z,25.17
2017-10-27T21:56:47.407Z,24.40
2017-10-27T21:59:13.849Z,23.40
2017-10-27T22:01:41.103Z,23.37
2017-10-27T22:04:07.529Z,21.50
2017-10-27T22:06:33.962Z,19.27
2017-10-27T22:09:00.336Z,18.57
2017-10-27T22:11:26.732Z,16.77
2017-10-27T22:13:53.135Z,14.20
2017-10-27T22:16:19.601Z,14.70
2017-10-27T22:18:46.650Z,12.00
2017-10-27T22:21:13.086Z,11.43
2017-10-27T22:23:39.528Z,11.97
2017-10-27T22:26:05.956Z,11.67
2017-10-27T22:28:32.386Z,12.13
2017-10-27T22:30:58.821Z,11.93
2017-10-27T22:33:25.265Z,11.37
2017-10-27T22:35:52.408Z,10.90
2017-10-27T22:38:18.868Z,11.40
2017-10-27T22:40:45.281Z,9.90
2017-10-27T22:43:11.679Z,10.47
2017-10-27T22:45:38.147Z,9.40
2017-10-27T22:48:04.589Z,8.50
2017-10-27T22:50:31.016Z,8.50
2017-10-27T22:52:58.141Z,9.40
2017-10-27T22:55:24.594Z,8.47
2017-10-27T22:57:51.035Z,9.10
2017-10-27T23:00:17.481Z,9.60
2017-10-27T23:02:43.804Z,9.97
2017-10-27T23:05:10.136Z,9.23
2017-10-27T23:07:36.580Z,8.50
2017-10-27T23:10:03.732Z,8.73
2017-10-27T23:12:30.157Z,9.77
2017-10-27T23:14:56.593Z,8.33
2017-10-27T23:17:23.036Z,8.67
2017-10-27T23:19:49.360Z,8.40
2017-10-27T23:22:15.804Z,8.53
2017-10-27T23:24:42.250Z,8.37
2017-10-27T23:27:09.482Z,8.60
2017-10-27T23:29:35.803Z,8.40
2017-10-27T23:32:02.120Z,6.20
2017-10-27T23:34:28.582Z,6.10
2017-10-27T23:36:55.017Z,5.93
2017-10-27T23:39:21.452Z,6.20
2017-10-27T23:41:47.793Z,6.10
2017-10-27T23:44:15.142Z,6.50
2017-10-27T23:46:41.549Z,7.07
2017-10-27T23:49:08.011Z,7.00
2017-10-27T23:51:34.445Z,7.23
2017-10-27T23:54:00.879Z,8.80
2017-10-27T23:56:27.314Z,7.97
2017-10-27T23:58:53.750Z,10.33
